sensor_id;sensor_type;location;lat;lon;timestamp;temperature;humidity
80706;DHT22;70229;48.010;7.852;2023-08-30T00:03:12;14.50;99.90
80706;DHT22;70229;48.010;7.852;2023-08-30T00:05:41;15.40;99.90
80706;DHT22;70229;48.010;7.852;2023-08-30T00:08:13;14.50;99.90
80706;DHT22;70229;48.010;7.852;2023-08-30T00:10:57;14.30;99.90
80706;DHT22;70229;48.010;7.852;2023-08-30T00:13:34;14.30;99.90
80706;DHT22;70229;48.010;7.852;2023-08-30T00:22:28;14.20;99.90
80706;DHT22;70229;48.010;7.852;2023-08-30T00:25:40;14.20;99.90
80706;DHT22;70229;48.010;7.852;2023-08-30T00:28:45;14.10;99.90
80706;DHT22;70229;48.010;7.852;2023-08-30T00:31:21;14.20;99.90
80706;DHT22;70229;48.010;7.852;2023-08-30T00:33:58;14.20;99.90
80706;DHT22;70229;48.010;7.852;2023-08-30T00:36:39;14.20;99.90
80706;DHT22;70229;48.010;7.852;2023-08-30T00:39:05;14.20;99.90
80706;DHT22;70229;48.010;7.852;2023-08-30T00:41:31;14.20;99.90
80706;DHT22;70229;48.010;7.852;2023-08-30T00:44:00;14.70;99.90
80706;DHT22;70229;48.010;7.852;2023-08-30T00:46:35;14.10;99.90
80706;DHT22;70229;48.010;7.852;2023-08-30T00:52:44;14.00;99.90
80706;DHT22;70229;48.010;7.852;2023-08-30T01:02:39;13.90;99.90
80706;DHT22;70229;48.010;7.852;2023-08-30T01:05:21;14.00;99.90
80706;DHT22;70229;48.010;7.852;2023-08-30T01:12:37;13.90;99.90
80706;DHT22;70229;48.010;7.852;2023-08-30T01:15:11;14.00;99.90
80706;DHT22;70229;48.010;7.852;2023-08-30T01:17:41;14.00;99.90
80706;DHT22;70229;48.010;7.852;2023-08-30T01:20:29;14.00;99.90
80706;DHT22;70229;48.010;7.852;2023-08-30T01:24:00;14.00;99.90
80706;DHT22;70229;48.010;7.852;2023-08-30T01:26:45;14.00;99.90
80706;DHT22;70229;48.010;7.852;2023-08-30T01:29:20;14.00;99.90
80706;DHT22;70229;48.010;7.852;2023-08-30T01:31:50;13.90;99.90
80706;DHT22;70229;48.010;7.852;2023-08-30T01:34:16;14.30;99.90
80706;DHT22;70229;48.010;7.852;2023-08-30T01:36:42;15.00;99.90
80706;DHT22;70229;48.010;7.852;2023-08-30T01:39:10;13.90;99.90
80706;DHT22;70229;48.010;7.852;2023-08-30T01:41:39;13.90;99.90
80706;DHT22;70229;48.010;7.852;2023-08-30T01:44:18;13.90;99.90
80706;DHT22;70229;48.010;7.852;2023-08-30T01:46:45;13.90;99.90
80706;DHT22;70229;48.010;7.852;2023-08-30T01:49:24;13.80;99.90
80706;DHT22;70229;48.010;7.852;2023-08-30T01:52:17;13.80;99.90
80706;DHT22;70229;48.010;7.852;2023-08-30T01:54:45;13.80;99.90
80706;DHT22;70229;48.010;7.852;2023-08-30T01:57:11;13.80;99.90
80706;DHT22;70229;48.010;7.852;2023-08-30T01:59:39;13.70;99.90
80706;DHT22;70229;48.010;7.852;2023-08-30T02:02:11;13.70;99.90
80706;DHT22;70229;48.010;7.852;2023-08-30T02:04:43;13.70;99.90
80706;DHT22;70229;48.010;7.852;2023-08-30T02:07:25;13.70;99.90
80706;DHT22;70229;48.010;7.852;2023-08-30T02:10:10;13.80;99.90
80706;DHT22;70229;48.010;7.852;2023-08-30T02:13:07;13.80;99.90
80706;DHT22;70229;48.010;7.852;2023-08-30T02:18:53;13.60;99.90
80706;DHT22;70229;48.010;7.852;2023-08-30T02:21:33;13.70;99.90
80706;DHT22;70229;48.010;7.852;2023-08-30T02:24:25;13.60;99.90
80706;DHT22;70229;48.010;7.852;2023-08-30T02:26:51;13.60;99.90
80706;DHT22;70229;48.010;7.852;2023-08-30T02:29:17;13.50;99.90
80706;DHT22;70229;48.010;7.852;2023-08-30T02:31:42;13.70;99.90
80706;DHT22;70229;48.010;7.852;2023-08-30T02:34:08;14.50;99.90
80706;DHT22;70229;48.010;7.852;2023-08-30T02:36:33;14.30;99.90
80706;DHT22;70229;48.010;7.852;2023-08-30T02:38:59;13.50;99.90
80706;DHT22;70229;48.010;7.852;2023-08-30T02:41:24;14.20;99.90
80706;DHT22;70229;48.010;7.852;2023-08-30T02:43:50;13.60;99.90
80706;DHT22;70229;48.010;7.852;2023-08-30T02:46:15;14.80;99.90
80706;DHT22;70229;48.010;7.852;2023-08-30T02:48:41;13.40;99.90
80706;DHT22;70229;48.010;7.852;2023-08-30T02:51:07;14.30;99.90
80706;DHT22;70229;48.010;7.852;2023-08-30T02:53:32;14.70;99.90
80706;DHT22;70229;48.010;7.852;2023-08-30T02:55:58;13.70;99.90
80706;DHT22;70229;48.010;7.852;2023-08-30T02:58:23;13.50;99.90
80706;DHT22;70229;48.010;7.852;2023-08-30T03:00:49;13.50;99.90
80706;DHT22;70229;48.010;7.852;2023-08-30T03:03:14;13.50;99.90
80706;DHT22;70229;48.010;7.852;2023-08-30T03:05:40;13.50;99.90
80706;DHT22;70229;48.010;7.852;2023-08-30T03:08:06;14.60;99.90
80706;DHT22;70229;48.010;7.852;2023-08-30T03:10:31;14.90;99.90
80706;DHT22;70229;48.010;7.852;2023-08-30T03:12:57;13.40;99.90
80706;DHT22;70229;48.010;7.852;2023-08-30T03:15:23;13.70;99.90
80706;DHT22;70229;48.010;7.852;2023-08-30T03:17:49;13.60;99.90
80706;DHT22;70229;48.010;7.852;2023-08-30T03:20:14;13.50;99.90
80706;DHT22;70229;48.010;7.852;2023-08-30T03:22:40;13.50;99.90
80706;DHT22;70229;48.010;7.852;2023-08-30T03:25:05;14.00;99.90
80706;DHT22;70229;48.010;7.852;2023-08-30T03:27:32;13.40;99.90
80706;DHT22;70229;48.010;7.852;2023-08-30T03:29:58;13.40;99.90
80706;DHT22;70229;48.010;7.852;2023-08-30T03:32:24;13.30;99.90
80706;DHT22;70229;48.010;7.852;2023-08-30T03:34:49;13.40;99.90
80706;DHT22;70229;48.010;7.852;2023-08-30T03:37:16;13.30;99.90
80706;DHT22;70229;48.010;7.852;2023-08-30T03:39:42;13.80;99.90
80706;DHT22;70229;48.010;7.852;2023-08-30T03:42:08;14.30;99.90
80706;DHT22;70229;48.010;7.852;2023-08-30T03:44:34;13.10;99.90
80706;DHT22;70229;48.010;7.852;2023-08-30T03:46:59;13.10;99.90
80706;DHT22;70229;48.010;7.852;2023-08-30T03:49:25;13.10;99.90
80706;DHT22;70229;48.010;7.852;2023-08-30T03:51:50;14.20;99.90
80706;DHT22;70229;48.010;7.852;2023-08-30T03:54:16;13.40;99.90
80706;DHT22;70229;48.010;7.852;2023-08-30T03:56:43;13.20;99.90
80706;DHT22;70229;48.010;7.852;2023-08-30T03:59:09;13.30;99.90
80706;DHT22;70229;48.010;7.852;2023-08-30T04:01:34;13.20;99.90
80706;DHT22;70229;48.010;7.852;2023-08-30T04:04:00;13.20;99.90
80706;DHT22;70229;48.010;7.852;2023-08-30T04:06:26;14.70;99.90
80706;DHT22;70229;48.010;7.852;2023-08-30T04:08:51;13.50;99.90
80706;DHT22;70229;48.010;7.852;2023-08-30T04:11:17;13.20;99.90
80706;DHT22;70229;48.010;7.852;2023-08-30T04:13:42;13.30;99.90
80706;DHT22;70229;48.010;7.852;2023-08-30T04:16:08;13.30;99.90
80706;DHT22;70229;48.010;7.852;2023-08-30T04:18:33;13.20;99.90
80706;DHT22;70229;48.010;7.852;2023-08-30T04:20:59;14.00;99.90
80706;DHT22;70229;48.010;7.852;2023-08-30T04:23:27;13.30;99.90
80706;DHT22;70229;48.010;7.852;2023-08-30T04:25:53;14.70;99.90
80706;DHT22;70229;48.010;7.852;2023-08-30T04:28:18;13.10;99.90
80706;DHT22;70229;48.010;7.852;2023-08-30T04:30:44;13.30;99.90
80706;DHT22;70229;48.010;7.852;2023-08-30T04:33:09;13.40;99.90
80706;DHT22;70229;48.010;7.852;2023-08-30T04:35:35;13.30;99.90
80706;DHT22;70229;48.010;7.852;2023-08-30T04:38:01;14.40;99.90
80706;DHT22;70229;48.010;7.852;2023-08-30T04:40:27;13.30;99.90
80706;DHT22;70229;48.010;7.852;2023-08-30T04:42:52;13.30;99.90
80706;DHT22;70229;48.010;7.852;2023-08-30T04:45:18;14.40;99.90
80706;DHT22;70229;48.010;7.852;2023-08-30T04:47:44;13.40;99.90
80706;DHT22;70229;48.010;7.852;2023-08-30T04:50:11;13.40;99.90
80706;DHT22;70229;48.010;7.852;2023-08-30T04:52:36;13.40;99.90
80706;DHT22;70229;48.010;7.852;2023-08-30T04:55:02;13.40;99.90
80706;DHT22;70229;48.010;7.852;2023-08-30T04:57:28;13.50;99.90
80706;DHT22;70229;48.010;7.852;2023-08-30T04:59:54;13.50;99.90
80706;DHT22;70229;48.010;7.852;2023-08-30T05:02:20;13.50;99.90
80706;DHT22;70229;48.010;7.852;2023-08-30T05:04:45;13.30;99.90
80706;DHT22;70229;48.010;7.852;2023-08-30T05:07:11;13.50;99.90
80706;DHT22;70229;48.010;7.852;2023-08-30T05:09:36;14.00;99.90
80706;DHT22;70229;48.010;7.852;2023-08-30T05:12:02;13.50;99.90
80706;DHT22;70229;48.010;7.852;2023-08-30T05:14:28;13.50;99.90
80706;DHT22;70229;48.010;7.852;2023-08-30T05:16:53;13.50;99.90
80706;DHT22;70229;48.010;7.852;2023-08-30T05:19:19;14.20;99.90
80706;DHT22;70229;48.010;7.852;2023-08-30T05:21:45;13.60;99.90
80706;DHT22;70229;48.010;7.852;2023-08-30T05:24:11;14.10;99.90
80706;DHT22;70229;48.010;7.852;2023-08-30T05:26:36;15.10;99.90
80706;DHT22;70229;48.010;7.852;2023-08-30T05:29:03;14.70;99.90
80706;DHT22;70229;48.010;7.852;2023-08-30T05:31:28;13.70;99.90
80706;DHT22;70229;48.010;7.852;2023-08-30T05:33:54;13.70;99.90
80706;DHT22;70229;48.010;7.852;2023-08-30T05:36:19;13.80;99.90
80706;DHT22;70229;48.010;7.852;2023-08-30T05:38:45;14.40;99.90
80706;DHT22;70229;48.010;7.852;2023-08-30T05:41:11;13.90;99.90
80706;DHT22;70229;48.010;7.852;2023-08-30T05:43:37;14.00;99.90
80706;DHT22;70229;48.010;7.852;2023-08-30T05:46:02;14.00;99.90
80706;DHT22;70229;48.010;7.852;2023-08-30T05:48:33;14.00;99.90
80706;DHT22;70229;48.010;7.852;2023-08-30T05:50:58;14.00;99.90
80706;DHT22;70229;48.010;7.852;2023-08-30T05:53:24;14.10;99.90
80706;DHT22;70229;48.010;7.852;2023-08-30T05:55:49;14.70;99.90
80706;DHT22;70229;48.010;7.852;2023-08-30T05:58:15;14.10;99.90
80706;DHT22;70229;48.010;7.852;2023-08-30T06:00:41;14.10;99.90
80706;DHT22;70229;48.010;7.852;2023-08-30T06:03:07;14.10;99.90
80706;DHT22;70229;48.010;7.852;2023-08-30T06:05:33;14.10;99.90
80706;DHT22;70229;48.010;7.852;2023-08-30T06:07:59;14.30;99.90
80706;DHT22;70229;48.010;7.852;2023-08-30T06:10:25;14.30;99.90
80706;DHT22;70229;48.010;7.852;2023-08-30T06:12:51;14.40;99.90
80706;DHT22;70229;48.010;7.852;2023-08-30T06:15:17;14.80;99.90
80706;DHT22;70229;48.010;7.852;2023-08-30T06:17:42;14.50;99.90
80706;DHT22;70229;48.010;7.852;2023-08-30T06:20:09;14.40;99.90
80706;DHT22;70229;48.010;7.852;2023-08-30T06:22:34;14.50;99.90
80706;DHT22;70229;48.010;7.852;2023-08-30T06:25:00;14.50;99.90
80706;DHT22;70229;48.010;7.852;2023-08-30T06:27:26;14.60;99.90
80706;DHT22;70229;48.010;7.852;2023-08-30T06:29:51;14.60;99.90
80706;DHT22;70229;48.010;7.852;2023-08-30T06:32:17;16.00;99.90
80706;DHT22;70229;48.010;7.852;2023-08-30T06:34:43;15.00;99.90
80706;DHT22;70229;48.010;7.852;2023-08-30T06:37:09;15.00;99.90
80706;DHT22;70229;48.010;7.852;2023-08-30T06:39:35;14.60;99.90
80706;DHT22;70229;48.010;7.852;2023-08-30T06:42:02;15.30;99.90
80706;DHT22;70229;48.010;7.852;2023-08-30T06:44:28;14.50;99.90
80706;DHT22;70229;48.010;7.852;2023-08-30T06:46:58;14.60;99.90
80706;DHT22;70229;48.010;7.852;2023-08-30T06:49:24;14.70;99.90
80706;DHT22;70229;48.010;7.852;2023-08-30T06:51:49;15.40;99.90
80706;DHT22;70229;48.010;7.852;2023-08-30T06:54:15;15.10;99.90
80706;DHT22;70229;48.010;7.852;2023-08-30T06:56:41;16.10;99.90
80706;DHT22;70229;48.010;7.852;2023-08-30T06:59:06;16.30;99.90
80706;DHT22;70229;48.010;7.852;2023-08-30T07:01:32;16.40;99.90
80706;DHT22;70229;48.010;7.852;2023-08-30T07:03:57;14.90;99.90
80706;DHT22;70229;48.010;7.852;2023-08-30T07:06:23;15.20;99.90
80706;DHT22;70229;48.010;7.852;2023-08-30T07:08:49;15.10;99.90
80706;DHT22;70229;48.010;7.852;2023-08-30T07:11:15;15.40;99.90
80706;DHT22;70229;48.010;7.852;2023-08-30T07:13:40;15.30;99.90
80706;DHT22;70229;48.010;7.852;2023-08-30T07:16:06;15.90;99.90
80706;DHT22;70229;48.010;7.852;2023-08-30T07:18:31;16.10;99.90
80706;DHT22;70229;48.010;7.852;2023-08-30T07:20:59;15.60;99.90
80706;DHT22;70229;48.010;7.852;2023-08-30T07:23:24;15.60;99.90
80706;DHT22;70229;48.010;7.852;2023-08-30T07:25:51;15.80;99.90
80706;DHT22;70229;48.010;7.852;2023-08-30T07:28:17;15.90;99.90
80706;DHT22;70229;48.010;7.852;2023-08-30T07:30:42;16.00;99.90
80706;DHT22;70229;48.010;7.852;2023-08-30T07:33:08;16.20;99.90
80706;DHT22;70229;48.010;7.852;2023-08-30T07:35:33;16.20;99.90
80706;DHT22;70229;48.010;7.852;2023-08-30T07:37:59;16.30;99.90
80706;DHT22;70229;48.010;7.852;2023-08-30T07:40:24;16.90;99.90
80706;DHT22;70229;48.010;7.852;2023-08-30T07:42:52;16.70;99.90
80706;DHT22;70229;48.010;7.852;2023-08-30T07:45:18;16.80;99.90
80706;DHT22;70229;48.010;7.852;2023-08-30T07:47:43;16.80;99.90
80706;DHT22;70229;48.010;7.852;2023-08-30T07:50:09;16.60;99.90
80706;DHT22;70229;48.010;7.852;2023-08-30T07:52:35;16.60;99.90
80706;DHT22;70229;48.010;7.852;2023-08-30T07:55:00;16.70;99.90
80706;DHT22;70229;48.010;7.852;2023-08-30T07:57:26;18.10;99.90
80706;DHT22;70229;48.010;7.852;2023-08-30T07:59:52;17.00;99.90
80706;DHT22;70229;48.010;7.852;2023-08-30T08:02:17;17.10;99.90
80706;DHT22;70229;48.010;7.852;2023-08-30T08:04:43;17.40;99.90
80706;DHT22;70229;48.010;7.852;2023-08-30T08:07:09;17.20;99.90
80706;DHT22;70229;48.010;7.852;2023-08-30T08:09:34;17.60;99.90
80706;DHT22;70229;48.010;7.852;2023-08-30T08:12:00;17.30;99.90
80706;DHT22;70229;48.010;7.852;2023-08-30T08:14:25;17.80;99.90
80706;DHT22;70229;48.010;7.852;2023-08-30T08:16:51;17.40;99.90
80706;DHT22;70229;48.010;7.852;2023-08-30T08:19:20;17.60;99.90
80706;DHT22;70229;48.010;7.852;2023-08-30T08:21:47;18.70;99.90
80706;DHT22;70229;48.010;7.852;2023-08-30T08:24:15;17.60;99.90
80706;DHT22;70229;48.010;7.852;2023-08-30T08:26:41;19.00;99.90
80706;DHT22;70229;48.010;7.852;2023-08-30T08:29:06;18.30;99.90
80706;DHT22;70229;48.010;7.852;2023-08-30T08:31:32;18.30;99.90
80706;DHT22;70229;48.010;7.852;2023-08-30T08:34:11;17.90;99.90
80706;DHT22;70229;48.010;7.852;2023-08-30T08:36:46;17.90;99.90
80706;DHT22;70229;48.010;7.852;2023-08-30T08:39:11;17.70;99.90
80706;DHT22;70229;48.010;7.852;2023-08-30T08:41:41;17.80;99.90
80706;DHT22;70229;48.010;7.852;2023-08-30T08:44:07;17.80;99.90
80706;DHT22;70229;48.010;7.852;2023-08-30T08:46:35;19.30;99.90
80706;DHT22;70229;48.010;7.852;2023-08-30T08:49:05;17.90;99.90
80706;DHT22;70229;48.010;7.852;2023-08-30T08:51:33;17.90;99.90
80706;DHT22;70229;48.010;7.852;2023-08-30T08:54:03;18.60;99.90
80706;DHT22;70229;48.010;7.852;2023-08-30T08:56:30;17.80;99.90
80706;DHT22;70229;48.010;7.852;2023-08-30T08:58:56;18.00;99.90
80706;DHT22;70229;48.010;7.852;2023-08-30T09:01:22;17.90;99.90
80706;DHT22;70229;48.010;7.852;2023-08-30T09:03:48;18.50;99.90
80706;DHT22;70229;48.010;7.852;2023-08-30T09:06:15;18.90;99.90
80706;DHT22;70229;48.010;7.852;2023-08-30T09:08:40;18.20;99.90
80706;DHT22;70229;48.010;7.852;2023-08-30T09:11:06;18.90;99.90
80706;DHT22;70229;48.010;7.852;2023-08-30T09:13:31;18.20;99.90
80706;DHT22;70229;48.010;7.852;2023-08-30T09:15:57;18.20;99.90
80706;DHT22;70229;48.010;7.852;2023-08-30T09:18:23;18.70;99.90
80706;DHT22;70229;48.010;7.852;2023-08-30T09:20:53;18.70;99.90
80706;DHT22;70229;48.010;7.852;2023-08-30T09:23:21;18.80;99.90
80706;DHT22;70229;48.010;7.852;2023-08-30T09:25:54;18.80;99.90
80706;DHT22;70229;48.010;7.852;2023-08-30T09:28:20;18.80;99.90
80706;DHT22;70229;48.010;7.852;2023-08-30T09:30:50;20.20;99.90
80706;DHT22;70229;48.010;7.852;2023-08-30T09:33:16;18.60;99.90
80706;DHT22;70229;48.010;7.852;2023-08-30T09:35:45;19.40;99.90
80706;DHT22;70229;48.010;7.852;2023-08-30T09:38:18;18.70;99.90
80706;DHT22;70229;48.010;7.852;2023-08-30T09:40:44;20.20;99.90
80706;DHT22;70229;48.010;7.852;2023-08-30T09:43:11;19.00;99.90
80706;DHT22;70229;48.010;7.852;2023-08-30T09:45:37;19.00;99.90
80706;DHT22;70229;48.010;7.852;2023-08-30T09:48:04;19.00;99.90
80706;DHT22;70229;48.010;7.852;2023-08-30T09:50:33;18.90;99.90
80706;DHT22;70229;48.010;7.852;2023-08-30T09:53:07;19.80;99.90
80706;DHT22;70229;48.010;7.852;2023-08-30T09:55:34;18.90;99.90
80706;DHT22;70229;48.010;7.852;2023-08-30T09:58:02;19.90;99.90
80706;DHT22;70229;48.010;7.852;2023-08-30T10:00:30;18.60;99.90
80706;DHT22;70229;48.010;7.852;2023-08-30T10:02:58;18.80;99.90
80706;DHT22;70229;48.010;7.852;2023-08-30T10:05:25;19.40;99.90
80706;DHT22;70229;48.010;7.852;2023-08-30T10:07:52;19.30;99.90
80706;DHT22;70229;48.010;7.852;2023-08-30T10:10:19;19.90;99.90
80706;DHT22;70229;48.010;7.852;2023-08-30T10:12:46;19.50;99.90
80706;DHT22;70229;48.010;7.852;2023-08-30T10:15:11;19.50;99.90
80706;DHT22;70229;48.010;7.852;2023-08-30T10:17:38;18.70;99.90
80706;DHT22;70229;48.010;7.852;2023-08-30T10:20:07;19.80;99.90
80706;DHT22;70229;48.010;7.852;2023-08-30T10:22:35;18.90;99.90
80706;DHT22;70229;48.010;7.852;2023-08-30T10:25:04;19.00;99.90
80706;DHT22;70229;48.010;7.852;2023-08-30T10:27:32;19.30;99.90
80706;DHT22;70229;48.010;7.852;2023-08-30T10:30:01;20.10;99.90
80706;DHT22;70229;48.010;7.852;2023-08-30T10:32:29;20.00;99.90
80706;DHT22;70229;48.010;7.852;2023-08-30T10:34:55;19.10;99.90
80706;DHT22;70229;48.010;7.852;2023-08-30T10:37:26;20.80;99.90
80706;DHT22;70229;48.010;7.852;2023-08-30T10:39:52;19.50;99.60
80706;DHT22;70229;48.010;7.852;2023-08-30T10:42:22;20.60;99.90
80706;DHT22;70229;48.010;7.852;2023-08-30T10:44:56;19.60;99.40
80706;DHT22;70229;48.010;7.852;2023-08-30T10:47:34;20.10;99.40
80706;DHT22;70229;48.010;7.852;2023-08-30T10:50:05;19.70;99.90
80706;DHT22;70229;48.010;7.852;2023-08-30T10:52:31;20.00;98.60
80706;DHT22;70229;48.010;7.852;2023-08-30T10:55:13;20.30;98.30
80706;DHT22;70229;48.010;7.852;2023-08-30T10:57:44;20.50;98.50
80706;DHT22;70229;48.010;7.852;2023-08-30T11:02:37;20.30;97.70
80706;DHT22;70229;48.010;7.852;2023-08-30T11:05:06;20.30;97.50
80706;DHT22;70229;48.010;7.852;2023-08-30T11:07:34;20.60;97.60
80706;DHT22;70229;48.010;7.852;2023-08-30T11:09:59;21.10;97.70
80706;DHT22;70229;48.010;7.852;2023-08-30T11:12:25;21.50;97.60
80706;DHT22;70229;48.010;7.852;2023-08-30T11:14:52;21.30;96.90
80706;DHT22;70229;48.010;7.852;2023-08-30T11:17:21;21.10;96.50
80706;DHT22;70229;48.010;7.852;2023-08-30T11:19:49;21.20;96.10
80706;DHT22;70229;48.010;7.852;2023-08-30T11:22:16;21.20;95.50
80706;DHT22;70229;48.010;7.852;2023-08-30T11:24:47;20.60;96.10
80706;DHT22;70229;48.010;7.852;2023-08-30T11:27:16;21.10;96.60
80706;DHT22;70229;48.010;7.852;2023-08-30T11:29:43;20.80;96.40
80706;DHT22;70229;48.010;7.852;2023-08-30T11:32:08;20.80;96.20
80706;DHT22;70229;48.010;7.852;2023-08-30T11:34:34;20.70;95.70
80706;DHT22;70229;48.010;7.852;2023-08-30T11:37:00;20.40;97.10
80706;DHT22;70229;48.010;7.852;2023-08-30T11:39:28;20.40;96.50
80706;DHT22;70229;48.010;7.852;2023-08-30T11:41:54;20.60;95.70
80706;DHT22;70229;48.010;7.852;2023-08-30T11:44:23;21.60;95.80
80706;DHT22;70229;48.010;7.852;2023-08-30T11:46:49;21.40;95.30
80706;DHT22;70229;48.010;7.852;2023-08-30T11:49:17;21.40;95.20
80706;DHT22;70229;48.010;7.852;2023-08-30T11:51:43;21.90;94.80
80706;DHT22;70229;48.010;7.852;2023-08-30T11:54:09;22.10;94.30
80706;DHT22;70229;48.010;7.852;2023-08-30T11:56:35;22.30;94.30
80706;DHT22;70229;48.010;7.852;2023-08-30T11:59:01;22.50;93.50
80706;DHT22;70229;48.010;7.852;2023-08-30T12:01:28;22.40;92.50
80706;DHT22;70229;48.010;7.852;2023-08-30T12:03:54;21.90;92.90
80706;DHT22;70229;48.010;7.852;2023-08-30T12:06:23;22.00;92.60
80706;DHT22;70229;48.010;7.852;2023-08-30T12:08:48;22.50;92.00
80706;DHT22;70229;48.010;7.852;2023-08-30T12:11:22;23.20;90.50
80706;DHT22;70229;48.010;7.852;2023-08-30T12:13:48;22.90;89.40
80706;DHT22;70229;48.010;7.852;2023-08-30T12:16:17;22.80;86.60
80706;DHT22;70229;48.010;7.852;2023-08-30T12:18:43;22.40;91.30
80706;DHT22;70229;48.010;7.852;2023-08-30T12:21:09;22.50;90.20
80706;DHT22;70229;48.010;7.852;2023-08-30T12:23:35;22.70;88.30
80706;DHT22;70229;48.010;7.852;2023-08-30T12:26:04;23.00;85.60
80706;DHT22;70229;48.010;7.852;2023-08-30T12:28:31;22.80;86.10
80706;DHT22;70229;48.010;7.852;2023-08-30T12:30:57;22.70;85.30
80706;DHT22;70229;48.010;7.852;2023-08-30T12:33:23;22.40;85.70
80706;DHT22;70229;48.010;7.852;2023-08-30T12:35:53;22.60;87.70
80706;DHT22;70229;48.010;7.852;2023-08-30T12:38:18;23.00;87.30
80706;DHT22;70229;48.010;7.852;2023-08-30T12:40:49;23.00;85.10
80706;DHT22;70229;48.010;7.852;2023-08-30T12:43:16;22.50;86.10
80706;DHT22;70229;48.010;7.852;2023-08-30T12:45:42;22.20;87.00
80706;DHT22;70229;48.010;7.852;2023-08-30T12:48:09;22.10;88.50
80706;DHT22;70229;48.010;7.852;2023-08-30T12:50:36;22.10;89.30
80706;DHT22;70229;48.010;7.852;2023-08-30T12:53:05;22.30;90.20
80706;DHT22;70229;48.010;7.852;2023-08-30T12:55:31;21.80;89.00
80706;DHT22;70229;48.010;7.852;2023-08-30T12:57:57;21.50;90.20
80706;DHT22;70229;48.010;7.852;2023-08-30T13:00:24;21.30;91.10
80706;DHT22;70229;48.010;7.852;2023-08-30T13:02:50;22.30;90.60
80706;DHT22;70229;48.010;7.852;2023-08-30T13:05:16;22.90;88.80
80706;DHT22;70229;48.010;7.852;2023-08-30T13:07:42;22.40;87.00
80706;DHT22;70229;48.010;7.852;2023-08-30T13:10:08;22.30;88.00
80706;DHT22;70229;48.010;7.852;2023-08-30T13:12:34;21.80;89.10
80706;DHT22;70229;48.010;7.852;2023-08-30T13:15:00;21.70;89.50
80706;DHT22;70229;48.010;7.852;2023-08-30T13:17:26;21.40;90.10
80706;DHT22;70229;48.010;7.852;2023-08-30T13:19:52;21.50;91.30
80706;DHT22;70229;48.010;7.852;2023-08-30T13:22:17;21.20;91.50
80706;DHT22;70229;48.010;7.852;2023-08-30T13:24:43;21.20;91.70
80706;DHT22;70229;48.010;7.852;2023-08-30T13:27:09;21.10;91.80
80706;DHT22;70229;48.010;7.852;2023-08-30T13:29:35;21.50;91.40
80706;DHT22;70229;48.010;7.852;2023-08-30T13:32:01;22.00;91.20
80706;DHT22;70229;48.010;7.852;2023-08-30T13:34:26;21.90;92.00
80706;DHT22;70229;48.010;7.852;2023-08-30T13:36:52;22.70;91.00
80706;DHT22;70229;48.010;7.852;2023-08-30T13:39:17;21.90;91.00
80706;DHT22;70229;48.010;7.852;2023-08-30T13:41:46;22.00;90.50
80706;DHT22;70229;48.010;7.852;2023-08-30T13:44:11;22.00;91.20
80706;DHT22;70229;48.010;7.852;2023-08-30T13:46:37;22.00;91.00
80706;DHT22;70229;48.010;7.852;2023-08-30T13:49:02;22.30;92.90
80706;DHT22;70229;48.010;7.852;2023-08-30T13:51:28;22.40;91.30
80706;DHT22;70229;48.010;7.852;2023-08-30T13:53:53;22.60;90.80
80706;DHT22;70229;48.010;7.852;2023-08-30T13:56:19;22.90;89.20
80706;DHT22;70229;48.010;7.852;2023-08-30T13:58:45;22.70;90.60
80706;DHT22;70229;48.010;7.852;2023-08-30T14:01:11;22.60;90.00
80706;DHT22;70229;48.010;7.852;2023-08-30T14:03:37;22.50;89.60
80706;DHT22;70229;48.010;7.852;2023-08-30T14:06:03;22.70;90.10
80706;DHT22;70229;48.010;7.852;2023-08-30T14:08:29;22.40;87.90
80706;DHT22;70229;48.010;7.852;2023-08-30T14:10:55;22.20;84.20
80706;DHT22;70229;48.010;7.852;2023-08-30T14:13:21;22.50;84.70
80706;DHT22;70229;48.010;7.852;2023-08-30T14:15:47;21.90;85.10
80706;DHT22;70229;48.010;7.852;2023-08-30T14:18:14;22.30;84.20
80706;DHT22;70229;48.010;7.852;2023-08-30T14:20:41;21.80;85.10
80706;DHT22;70229;48.010;7.852;2023-08-30T14:23:07;21.60;85.00
80706;DHT22;70229;48.010;7.852;2023-08-30T14:25:32;21.50;85.80
80706;DHT22;70229;48.010;7.852;2023-08-30T14:27:58;21.50;86.50
80706;DHT22;70229;48.010;7.852;2023-08-30T14:30:25;21.50;86.70
80706;DHT22;70229;48.010;7.852;2023-08-30T14:32:51;21.20;87.30
80706;DHT22;70229;48.010;7.852;2023-08-30T14:35:17;21.60;88.50
80706;DHT22;70229;48.010;7.852;2023-08-30T14:37:46;21.00;86.80
80706;DHT22;70229;48.010;7.852;2023-08-30T14:40:12;21.00;89.50
80706;DHT22;70229;48.010;7.852;2023-08-30T14:42:38;20.90;87.60
80706;DHT22;70229;48.010;7.852;2023-08-30T14:45:04;20.60;89.30
80706;DHT22;70229;48.010;7.852;2023-08-30T14:47:32;20.50;88.50
80706;DHT22;70229;48.010;7.852;2023-08-30T14:49:57;20.50;89.70
80706;DHT22;70229;48.010;7.852;2023-08-30T14:52:23;20.60;90.50
80706;DHT22;70229;48.010;7.852;2023-08-30T14:54:49;20.60;89.70
80706;DHT22;70229;48.010;7.852;2023-08-30T14:57:14;21.00;89.90
80706;DHT22;70229;48.010;7.852;2023-08-30T14:59:40;21.00;90.20
80706;DHT22;70229;48.010;7.852;2023-08-30T15:02:06;20.60;90.00
80706;DHT22;70229;48.010;7.852;2023-08-30T15:04:31;20.80;89.30
80706;DHT22;70229;48.010;7.852;2023-08-30T15:06:57;21.10;90.10
80706;DHT22;70229;48.010;7.852;2023-08-30T15:09:22;20.80;89.30
80706;DHT22;70229;48.010;7.852;2023-08-30T15:11:48;21.20;87.40
80706;DHT22;70229;48.010;7.852;2023-08-30T15:14:13;20.90;87.60
80706;DHT22;70229;48.010;7.852;2023-08-30T15:16:39;21.00;84.20
80706;DHT22;70229;48.010;7.852;2023-08-30T15:19:05;20.80;86.00
80706;DHT22;70229;48.010;7.852;2023-08-30T15:21:30;20.90;85.40
80706;DHT22;70229;48.010;7.852;2023-08-30T15:23:56;21.00;86.30
80706;DHT22;70229;48.010;7.852;2023-08-30T15:26:21;20.80;84.10
80706;DHT22;70229;48.010;7.852;2023-08-30T15:28:47;20.70;84.70
80706;DHT22;70229;48.010;7.852;2023-08-30T15:31:16;20.90;85.70
80706;DHT22;70229;48.010;7.852;2023-08-30T15:33:45;20.70;86.10
80706;DHT22;70229;48.010;7.852;2023-08-30T15:36:11;20.80;86.70
80706;DHT22;70229;48.010;7.852;2023-08-30T15:38:36;20.70;86.90
80706;DHT22;70229;48.010;7.852;2023-08-30T15:41:11;21.70;84.10
80706;DHT22;70229;48.010;7.852;2023-08-30T15:43:41;20.90;84.40
80706;DHT22;70229;48.010;7.852;2023-08-30T15:46:11;20.80;82.80
80706;DHT22;70229;48.010;7.852;2023-08-30T15:48:38;20.80;82.50
80706;DHT22;70229;48.010;7.852;2023-08-30T15:51:04;20.80;82.90
80706;DHT22;70229;48.010;7.852;2023-08-30T15:53:30;20.90;84.80
80706;DHT22;70229;48.010;7.852;2023-08-30T15:55:55;21.30;82.30
80706;DHT22;70229;48.010;7.852;2023-08-30T15:58:21;21.00;82.00
80706;DHT22;70229;48.010;7.852;2023-08-30T16:00:47;20.90;82.80
80706;DHT22;70229;48.010;7.852;2023-08-30T16:03:14;21.00;82.80